LIMP/PMF METAR and TAF weather

Enter ICAO airport designator
Station Type Date Time Source
LIMP METAR 2019/08/24 17:50 UTC NOAA

LIMP 241750Z 26009KT 9999 TS SCT030CB 27/22 Q1017


Station Type Date Time Source
LIMP Decoded METAR 2019/08/24 17:50 UTC NOAA

Station name not available
Aug 24, 2019 - 01:50 PM EDT / 2019.08.24 1750 UTC
Wind: from the W (260 degrees) at 10 MPH (9 KT):0
Visibility: greater than 7 mile(s):0
Sky conditions: partly cloudy
Weather: thunder; Cumulonimbus clouds observed
Temperature: 80 F (27 C)
Dew Point: 71 F (22 C)
Relative Humidity: 74%
Pressure (altimeter): 30.03 in. Hg (1017 hPa)
ob: LIMP 241750Z 26009KT 9999 TS SCT030CB 27/22 Q1017
cycle: 18

Station Type Date Time Source
LIMP TAF 2019/08/24 18:21 UTC NOAA

TAF LIMP 241700Z 2418/2518 VRB05KT 9999 SCT050

Example: see airport list